createdAt,value
2022-10-01T00:01:04.995Z,55.00
2022-10-01T00:03:39.464Z,54.90
2022-10-01T00:06:14.629Z,54.91
2022-10-01T00:08:41.864Z,54.94
2022-10-01T00:11:14.231Z,54.94
2022-10-01T00:13:43.025Z,54.81
2022-10-01T00:16:12.843Z,54.82
2022-10-01T00:18:40.387Z,54.92
2022-10-01T00:21:12.372Z,54.82
2022-10-01T00:23:39.408Z,55.16
2022-10-01T00:26:14.961Z,54.98
2022-10-01T00:28:42.180Z,54.93
2022-10-01T00:31:09.509Z,55.02
2022-10-01T00:33:36.789Z,54.93
2022-10-01T00:36:05.431Z,55.20
2022-10-01T00:38:32.593Z,55.04
2022-10-01T00:40:59.633Z,55.03
2022-10-01T00:43:28.452Z,55.06
2022-10-01T00:45:57.079Z,55.18
2022-10-01T00:48:23.887Z,55.10
2022-10-01T00:50:50.884Z,55.04
2022-10-01T00:53:17.601Z,54.99
2022-10-01T00:55:46.084Z,55.23
2022-10-01T00:58:13.396Z,55.22
2022-10-01T01:00:40.557Z,55.25
2022-10-01T01:03:07.306Z,55.01
2022-10-01T01:05:34.245Z,55.25
2022-10-01T01:08:01.672Z,54.92
2022-10-01T01:10:50.196Z,55.25
2022-10-01T01:13:24.962Z,55.09
2022-10-01T01:16:34.046Z,55.33
2022-10-01T01:19:20.951Z,54.77
2022-10-01T01:21:49.596Z,55.24
2022-10-01T01:24:28.751Z,55.14
2022-10-01T01:27:16.334Z,55.02
2022-10-01T01:30:04.261Z,55.24
2022-10-01T01:32:38.439Z,55.22
2022-10-01T01:35:07.251Z,55.16
2022-10-01T01:37:45.273Z,55.15
2022-10-01T01:40:12.350Z,54.99
2022-10-01T01:42:39.717Z,55.21
2022-10-01T01:45:09.892Z,55.19
2022-10-01T01:47:38.242Z,55.06
2022-10-01T01:50:07.589Z,55.01
2022-10-01T01:52:34.454Z,55.00
2022-10-01T01:55:08.628Z,55.20
2022-10-01T01:57:40.678Z,55.05
2022-10-01T02:00:08.084Z,55.26
2022-10-01T02:02:35.296Z,54.92
2022-10-01T02:05:04.198Z,55.11
2022-10-01T02:07:34.163Z,55.15
2022-10-01T02:10:11.987Z,55.20
2022-10-01T02:13:04.003Z,55.22
2022-10-01T02:15:40.144Z,55.14
2022-10-01T02:18:16.638Z,55.24
2022-10-01T02:20:50.667Z,55.20
2022-10-01T02:23:25.310Z,55.07
2022-10-01T02:25:56.602Z,54.92
2022-10-01T02:28:24.399Z,55.08
2022-10-01T02:30:51.974Z,55.20
2022-10-01T02:33:22.359Z,55.32
2022-10-01T02:35:49.518Z,55.31
2022-10-01T02:38:16.828Z,55.18
2022-10-01T02:40:44.365Z,55.07
2022-10-01T02:43:14.719Z,55.56
2022-10-01T02:45:41.550Z,55.25
2022-10-01T02:48:09.554Z,55.06
2022-10-01T02:50:50.178Z,55.19
2022-10-01T02:53:39.784Z,55.04
2022-10-01T02:56:06.741Z,55.21
2022-10-01T02:58:33.476Z,55.59
2022-10-01T03:01:00.229Z,55.42
2022-10-01T03:03:27.395Z,55.40
2022-10-01T03:05:54.197Z,55.11
2022-10-01T03:08:20.909Z,55.16
2022-10-01T03:10:47.873Z,55.09
2022-10-01T03:13:14.844Z,55.10
2022-10-01T03:15:41.648Z,55.31
2022-10-01T03:18:08.653Z,55.42
2022-10-01T03:20:35.353Z,54.92
2022-10-01T03:23:02.097Z,55.34
2022-10-01T03:25:29.370Z,55.55
2022-10-01T03:27:56.223Z,55.10
2022-10-01T03:30:23.059Z,55.31
2022-10-01T03:32:50.020Z,55.21
2022-10-01T03:35:17.165Z,55.37
2022-10-01T03:37:43.940Z,55.13
2022-10-01T03:40:10.985Z,55.39
2022-10-01T03:42:37.753Z,55.44
2022-10-01T03:45:04.655Z,55.20
2022-10-01T03:47:31.873Z,55.31
2022-10-01T03:49:58.615Z,55.14
2022-10-01T03:52:25.525Z,55.33
2022-10-01T03:54:52.617Z,55.52
2022-10-01T03:57:19.461Z,55.43
2022-10-01T03:59:46.275Z,55.33
2022-10-01T04:02:13.460Z,55.45
2022-10-01T04:04:40.461Z,55.29
2022-10-01T04:07:07.238Z,55.53
2022-10-01T04:09:34.310Z,55.50
2022-10-01T04:12:01.265Z,55.43
2022-10-01T04:14:28.172Z,55.38
2022-10-01T04:16:55.141Z,55.45
2022-10-01T04:19:21.960Z,55.36
2022-10-01T04:21:48.921Z,55.26
2022-10-01T04:24:16.129Z,55.38
2022-10-01T04:26:42.910Z,55.43
2022-10-01T04:29:09.724Z,55.44
2022-10-01T04:31:37.213Z,55.52
2022-10-01T04:34:04.408Z,55.41
2022-10-01T04:36:31.251Z,55.41
2022-10-01T04:39:02.139Z,55.41
2022-10-01T04:41:31.143Z,55.27
2022-10-01T04:44:01.656Z,55.27
2022-10-01T04:46:30.289Z,55.24
2022-10-01T04:48:57.457Z,55.06
2022-10-01T04:51:24.638Z,55.09
2022-10-01T04:53:51.455Z,55.05
2022-10-01T04:56:18.263Z,55.48
2022-10-01T04:58:45.239Z,55.16
2022-10-01T05:01:12.144Z,55.22
2022-10-01T05:03:39.016Z,55.54
2022-10-01T05:06:06.196Z,55.41
2022-10-01T05:08:33.096Z,55.29
2022-10-01T05:11:00.448Z,55.28
2022-10-01T05:13:30.238Z,55.19
2022-10-01T05:15:58.131Z,55.45
2022-10-01T05:18:25.101Z,55.10
2022-10-01T05:20:52.109Z,55.33
2022-10-01T05:23:18.881Z,55.19
2022-10-01T05:25:47.022Z,55.20
2022-10-01T05:28:19.799Z,55.24
2022-10-01T05:30:49.089Z,55.33
2022-10-01T05:33:16.110Z,55.22
2022-10-01T05:35:42.974Z,55.03
2022-10-01T05:38:10.009Z,55.12
2022-10-01T05:40:37.052Z,55.03
2022-10-01T05:43:04.541Z,55.14
2022-10-01T05:45:31.882Z,55.36
2022-10-01T05:48:05.960Z,55.09
2022-10-01T05:50:34.672Z,55.36
2022-10-01T05:53:02.049Z,55.42
2022-10-01T05:55:34.811Z,55.43
2022-10-01T05:58:10.547Z,55.16
2022-10-01T06:00:37.524Z,55.22
2022-10-01T06:03:05.469Z,55.36
2022-10-01T06:05:33.035Z,55.44
2022-10-01T06:08:00.790Z,55.18
2022-10-01T06:10:30.393Z,55.08
2022-10-01T06:13:05.480Z,55.22
2022-10-01T06:15:34.306Z,55.20
2022-10-01T06:18:05.660Z,55.21
2022-10-01T06:20:32.531Z,55.39
2022-10-01T06:22:59.743Z,55.05
2022-10-01T06:25:30.717Z,55.06
2022-10-01T06:28:00.766Z,55.27
2022-10-01T06:30:29.482Z,55.11
2022-10-01T06:33:06.231Z,55.38
2022-10-01T06:35:33.806Z,55.35
2022-10-01T06:38:03.443Z,55.32
2022-10-01T06:40:31.363Z,55.10
2022-10-01T06:42:58.753Z,55.15
2022-10-01T06:45:27.142Z,55.22
2022-10-01T06:47:58.485Z,55.30
2022-10-01T06:50:25.608Z,55.28
2022-10-01T06:52:52.715Z,55.18
2022-10-01T06:55:21.534Z,55.36
2022-10-01T06:57:50.327Z,55.29
2022-10-01T07:00:17.215Z,55.50
2022-10-01T07:02:44.149Z,55.46
2022-10-01T07:05:12.431Z,55.47
2022-10-01T07:07:39.470Z,55.30
2022-10-01T07:10:07.686Z,55.41
2022-10-01T07:12:35.605Z,55.11
2022-10-01T07:15:02.505Z,55.29
2022-10-01T07:17:29.254Z,55.10
2022-10-01T07:19:58.250Z,55.29
2022-10-01T07:22:25.273Z,55.45
2022-10-01T07:24:52.313Z,55.27
2022-10-01T07:27:19.796Z,55.29
2022-10-01T07:29:46.884Z,55.40
2022-10-01T07:32:13.877Z,55.43
2022-10-01T07:34:40.969Z,55.40
2022-10-01T07:37:08.034Z,55.07
2022-10-01T07:39:35.664Z,55.35
2022-10-01T07:42:02.896Z,55.57
2022-10-01T07:44:29.716Z,55.25
2022-10-01T07:46:56.809Z,55.30
2022-10-01T07:49:25.261Z,55.28
2022-10-01T07:51:53.340Z,55.46
2022-10-01T07:54:23.235Z,55.36
2022-10-01T07:56:52.958Z,55.56
2022-10-01T07:59:19.797Z,55.61
2022-10-01T08:01:51.756Z,55.77
2022-10-01T08:04:41.204Z,56.13
2022-10-01T08:07:08.281Z,55.78
2022-10-01T08:09:35.518Z,55.69
2022-10-01T08:12:03.037Z,55.68
2022-10-01T08:14:30.449Z,55.92
2022-10-01T08:16:57.692Z,55.47
2022-10-01T08:19:24.730Z,55.52
2022-10-01T08:21:51.535Z,55.43
2022-10-01T08:24:20.042Z,55.20
2022-10-01T08:26:52.338Z,55.23
2022-10-01T08:29:19.608Z,55.80
2022-10-01T08:31:46.388Z,55.73
2022-10-01T08:34:14.009Z,55.64
2022-10-01T08:36:41.277Z,55.30
2022-10-01T08:39:08.257Z,55.36
2022-10-01T08:41:44.219Z,55.36
2022-10-01T08:44:27.956Z,55.63
2022-10-01T08:47:00.812Z,55.37
2022-10-01T08:49:33.251Z,55.79
2022-10-01T08:52:03.627Z,55.63
2022-10-01T08:55:00.572Z,55.56
2022-10-01T08:57:49.841Z,55.59
2022-10-01T09:00:17.392Z,55.87
2022-10-01T09:02:46.045Z,55.64
2022-10-01T09:05:20.269Z,55.77
2022-10-01T09:07:50.653Z,55.36
2022-10-01T09:10:27.339Z,55.58
2022-10-01T09:13:13.426Z,55.02
2022-10-01T09:15:59.520Z,55.31
2022-10-01T09:19:00.585Z,55.27
2022-10-01T09:21:39.246Z,55.32
2022-10-01T09:25:03.990Z,55.49
2022-10-01T09:27:30.815Z,55.53
2022-10-01T09:29:58.830Z,55.63
2022-10-01T09:32:37.147Z,55.63
2022-10-01T09:35:15.436Z,55.44
2022-10-01T09:37:49.202Z,55.58
2022-10-01T09:40:38.548Z,55.72
2022-10-01T09:43:08.237Z,55.63
2022-10-01T09:45:35.662Z,55.20
2022-10-01T09:48:05.211Z,55.66
2022-10-01T09:50:38.623Z,55.67
2022-10-01T09:53:05.777Z,55.58
2022-10-01T09:55:43.174Z,55.76
2022-10-01T09:58:15.485Z,55.88
2022-10-01T10:00:42.260Z,55.29
2022-10-01T10:03:09.173Z,55.86
2022-10-01T10:05:46.658Z,55.95
2022-10-01T10:08:19.652Z,55.66
2022-10-01T10:10:52.001Z,55.83
2022-10-01T10:13:39.342Z,55.59
2022-10-01T10:16:26.289Z,55.56
2022-10-01T10:19:04.802Z,55.48
2022-10-01T10:21:36.322Z,55.93
2022-10-01T10:24:05.061Z,55.60
2022-10-01T10:26:33.553Z,55.86
2022-10-01T10:29:02.836Z,55.98
2022-10-01T10:31:42.828Z,55.58
2022-10-01T10:34:22.348Z,55.98
2022-10-01T10:36:49.904Z,56.27
2022-10-01T10:39:25.016Z,55.92
2022-10-01T10:41:52.118Z,56.02
2022-10-01T10:44:21.450Z,55.79
2022-10-01T10:46:49.352Z,56.17
2022-10-01T10:49:19.304Z,56.00
2022-10-01T10:51:54.007Z,56.15
2022-10-01T10:54:30.294Z,56.19
2022-10-01T10:57:04.155Z,55.94
2022-10-01T10:59:32.983Z,55.70
2022-10-01T11:02:01.409Z,55.18
2022-10-01T11:04:38.811Z,55.11
2022-10-01T11:07:05.931Z,54.86
2022-10-01T11:09:43.429Z,54.87
2022-10-01T11:12:56.673Z,54.26
2022-10-01T11:15:46.123Z,54.02
2022-10-01T11:18:32.893Z,54.02
2022-10-01T11:21:21.172Z,53.88
2022-10-01T11:24:14.269Z,53.57
2022-10-01T11:26:53.649Z,54.01
2022-10-01T11:29:32.996Z,53.53
2022-10-01T11:32:09.036Z,53.61
2022-10-01T11:34:44.270Z,53.52
2022-10-01T11:37:32.696Z,53.49
2022-10-01T11:40:00.436Z,53.43
2022-10-01T11:42:34.724Z,53.39
2022-10-01T11:45:09.389Z,53.98
2022-10-01T11:47:38.062Z,53.79
2022-10-01T11:50:21.061Z,53.65
2022-10-01T11:53:00.099Z,53.60
2022-10-01T11:55:55.597Z,53.88
2022-10-01T11:58:54.119Z,53.34
2022-10-01T12:01:24.373Z,53.40
2022-10-01T12:03:54.304Z,53.21
2022-10-01T12:06:26.806Z,53.05
2022-10-01T12:09:26.806Z,52.94
2022-10-01T12:11:55.650Z,53.40
2022-10-01T12:14:27.559Z,53.24
2022-10-01T12:17:20.450Z,52.79
2022-10-01T12:19:50.456Z,52.79
2022-10-01T12:22:24.277Z,52.89
2022-10-01T12:24:51.981Z,53.20
2022-10-01T12:27:40.466Z,52.87
2022-10-01T12:30:18.447Z,53.08
2022-10-01T12:32:51.409Z,52.85
2022-10-01T12:35:43.940Z,53.52
2022-10-01T12:38:29.142Z,53.20
2022-10-01T12:41:55.596Z,53.21
2022-10-01T12:44:47.145Z,52.49
2022-10-01T12:47:38.336Z,52.53
2022-10-01T12:50:35.742Z,52.65
2022-10-01T12:53:02.829Z,52.92
2022-10-01T12:55:37.188Z,52.98
2022-10-01T12:58:14.116Z,53.04
2022-10-01T13:01:11.639Z,52.57
2022-10-01T13:04:03.331Z,52.51
2022-10-01T13:06:53.063Z,52.79
2022-10-01T13:09:26.087Z,53.03
2022-10-01T13:12:43.904Z,52.84
2022-10-01T13:15:20.630Z,52.58
2022-10-01T13:17:55.431Z,52.80
2022-10-01T13:20:41.111Z,52.63
2022-10-01T13:23:47.247Z,52.83
2022-10-01T13:26:42.023Z,52.92
2022-10-01T13:29:30.556Z,52.98
2022-10-01T13:32:22.557Z,52.70
2022-10-01T13:34:49.429Z,52.93
2022-10-01T13:37:29.772Z,53.01
2022-10-01T13:39:59.774Z,53.12
2022-10-01T13:42:29.032Z,52.57
2022-10-01T13:45:08.908Z,52.83
2022-10-01T13:47:40.140Z,52.91
2022-10-01T13:50:24.025Z,53.06
2022-10-01T13:52:51.689Z,53.01
2022-10-01T13:55:29.139Z,53.09
2022-10-01T13:58:06.328Z,52.80
2022-10-01T14:00:33.259Z,52.71
2022-10-01T14:03:07.287Z,52.80
2022-10-01T14:05:40.615Z,52.71
2022-10-01T14:08:19.458Z,52.98
2022-10-01T14:11:21.948Z,52.92
2022-10-01T14:14:08.499Z,52.84
2022-10-01T14:16:41.066Z,52.44
2022-10-01T14:19:17.499Z,52.46
2022-10-01T14:21:52.374Z,52.41
2022-10-01T14:24:25.801Z,52.26
2022-10-01T14:26:54.623Z,52.66
2022-10-01T14:29:43.559Z,52.13
2022-10-01T14:32:25.740Z,52.47
2022-10-01T14:35:20.682Z,52.03
2022-10-01T14:37:47.451Z,52.22
2022-10-01T14:40:21.989Z,52.49
2022-10-01T14:43:03.082Z,52.13
2022-10-01T14:45:30.281Z,51.83
2022-10-01T14:48:04.537Z,52.28
2022-10-01T14:50:35.114Z,51.85
2022-10-01T14:53:01.874Z,51.86
2022-10-01T14:55:28.783Z,51.86
2022-10-01T14:57:55.826Z,52.00
2022-10-01T15:00:29.898Z,52.21
2022-10-01T15:03:12.693Z,52.13
2022-10-01T15:05:39.578Z,51.87
2022-10-01T15:08:22.365Z,51.90
2022-10-01T15:10:53.875Z,51.96
2022-10-01T15:13:42.356Z,51.68
2022-10-01T15:16:20.189Z,52.20
2022-10-01T15:18:49.712Z,51.85
2022-10-01T15:21:23.249Z,52.06
2022-10-01T15:23:50.326Z,51.90
2022-10-01T15:26:22.482Z,51.73
2022-10-01T15:28:49.570Z,52.18
2022-10-01T15:31:16.821Z,51.83
2022-10-01T15:33:43.641Z,51.76
2022-10-01T15:36:16.894Z,52.16
2022-10-01T15:38:45.232Z,52.64
2022-10-01T15:41:33.348Z,52.46
2022-10-01T15:44:05.033Z,52.24
2022-10-01T15:46:35.165Z,52.07
2022-10-01T15:49:16.522Z,52.28
2022-10-01T15:52:12.431Z,52.53
2022-10-01T15:54:40.471Z,52.60
2022-10-01T15:57:07.263Z,52.14
2022-10-01T15:59:34.687Z,52.68
2022-10-01T16:02:04.807Z,52.62
2022-10-01T16:04:31.694Z,52.80
2022-10-01T16:06:58.499Z,52.78
2022-10-01T16:09:30.349Z,52.46
2022-10-01T16:12:00.166Z,52.78
2022-10-01T16:14:43.771Z,52.64
2022-10-01T16:17:16.817Z,52.65
2022-10-01T16:19:50.860Z,52.81
2022-10-01T16:22:18.681Z,52.89
2022-10-01T16:24:49.696Z,52.92
2022-10-01T16:27:21.681Z,52.71
2022-10-01T16:30:05.511Z,52.72
2022-10-01T16:32:32.575Z,52.70
2022-10-01T16:35:19.579Z,52.84
2022-10-01T16:37:48.254Z,53.00
2022-10-01T16:40:16.483Z,52.85
2022-10-01T16:42:44.375Z,52.75
2022-10-01T16:45:18.558Z,52.97
2022-10-01T16:47:46.027Z,53.04
2022-10-01T16:50:14.250Z,53.04
2022-10-01T16:52:41.013Z,53.11
2022-10-01T16:55:17.944Z,52.98
2022-10-01T16:57:44.700Z,53.12
2022-10-01T17:00:18.933Z,53.15
2022-10-01T17:02:45.750Z,52.76
2022-10-01T17:05:22.690Z,52.88
2022-10-01T17:07:49.528Z,53.11
2022-10-01T17:10:17.281Z,53.24
2022-10-01T17:12:44.135Z,52.93
2022-10-01T17:15:12.975Z,52.92
2022-10-01T17:17:40.063Z,52.63
2022-10-01T17:20:07.648Z,52.99
2022-10-01T17:22:34.496Z,52.50
2022-10-01T17:25:01.496Z,52.75
2022-10-01T17:27:28.922Z,53.50
2022-10-01T17:29:57.233Z,53.74
2022-10-01T17:32:24.260Z,54.10
2022-10-01T17:34:53.721Z,53.96
2022-10-01T17:37:23.068Z,54.05
2022-10-01T17:39:50.142Z,53.27
2022-10-01T17:42:18.089Z,54.32
2022-10-01T17:44:45.074Z,54.47
2022-10-01T17:47:12.152Z,53.94
2022-10-01T17:49:39.134Z,54.08
2022-10-01T17:52:06.719Z,54.10
2022-10-01T17:54:33.533Z,54.46
2022-10-01T17:57:00.328Z,54.89
2022-10-01T17:59:27.383Z,54.83
2022-10-01T18:01:54.500Z,54.85
2022-10-01T18:04:21.609Z,54.51
2022-10-01T18:06:49.081Z,54.79
2022-10-01T18:09:15.861Z,54.83
2022-10-01T18:11:42.685Z,55.19
2022-10-01T18:14:09.842Z,55.38
2022-10-01T18:16:36.867Z,55.41
2022-10-01T18:21:51.229Z,55.26
2022-10-01T18:24:18.144Z,55.61
2022-10-01T18:26:45.757Z,56.06
2022-10-01T18:29:30.934Z,55.12
2022-10-01T18:32:17.285Z,55.39
2022-10-01T18:34:49.746Z,55.35
2022-10-01T18:37:52.746Z,55.75
2022-10-01T18:40:30.510Z,55.67
2022-10-01T18:43:13.386Z,55.38
2022-10-01T18:45:49.554Z,55.41
2022-10-01T18:48:25.368Z,55.15
2022-10-01T18:51:13.608Z,55.19
2022-10-01T18:53:49.631Z,55.29
2022-10-01T18:56:25.902Z,55.29
2022-10-01T18:59:15.873Z,55.00
2022-10-01T19:02:16.917Z,55.51
2022-10-01T19:04:55.909Z,56.04
2022-10-01T19:07:55.215Z,55.48
2022-10-01T19:10:31.632Z,55.60
2022-10-01T19:13:20.512Z,55.95
2022-10-01T19:15:59.450Z,55.87
2022-10-01T19:18:41.797Z,55.39
2022-10-01T19:21:36.969Z,55.02
2022-10-01T19:24:22.743Z,55.23
2022-10-01T19:26:58.131Z,55.13
2022-10-01T19:29:38.128Z,55.61
2022-10-01T19:32:12.401Z,55.41
2022-10-01T19:34:43.260Z,56.04
2022-10-01T19:37:19.098Z,55.85
2022-10-01T19:39:46.272Z,55.16
2022-10-01T19:42:17.515Z,56.01
2022-10-01T19:45:02.082Z,56.01
2022-10-01T19:47:31.358Z,55.89
2022-10-01T19:49:59.733Z,55.65
2022-10-01T19:52:26.462Z,56.43
2022-10-01T19:54:55.506Z,56.03
2022-10-01T19:57:24.833Z,55.60
2022-10-01T19:59:54.210Z,55.72
2022-10-01T20:02:31.371Z,55.72
2022-10-01T20:05:01.737Z,55.65
2022-10-01T20:07:30.320Z,55.55
2022-10-01T20:10:27.563Z,56.10
2022-10-01T20:13:13.009Z,55.75
2022-10-01T20:15:39.801Z,56.07
2022-10-01T20:18:21.676Z,56.21
2022-10-01T20:21:04.065Z,56.38
2022-10-01T20:23:36.884Z,56.02
2022-10-01T20:26:37.988Z,56.20
2022-10-01T20:29:15.401Z,56.43
2022-10-01T20:31:59.415Z,56.47
2022-10-01T20:34:54.448Z,56.09
2022-10-01T20:37:38.642Z,56.45
2022-10-01T20:40:13.428Z,56.00
2022-10-01T20:42:46.673Z,56.26
2022-10-01T20:45:28.159Z,56.07
2022-10-01T20:47:58.819Z,55.89
2022-10-01T20:50:33.019Z,56.17
2022-10-01T20:53:04.044Z,56.13
2022-10-01T20:55:39.039Z,55.90
2022-10-01T20:58:11.239Z,56.14
2022-10-01T21:00:38.489Z,56.12
2022-10-01T21:03:09.176Z,55.75
2022-10-01T21:05:43.388Z,56.18
2022-10-01T21:08:38.330Z,56.33
2022-10-01T21:11:09.584Z,55.97
2022-10-01T21:13:40.760Z,56.29
2022-10-01T21:16:28.206Z,56.53
2022-10-01T21:19:18.253Z,56.50
2022-10-01T21:22:01.561Z,55.85
2022-10-01T21:24:37.759Z,56.05
2022-10-01T21:27:18.709Z,56.23
2022-10-01T21:30:04.968Z,55.74
2022-10-01T21:32:50.580Z,56.08
2022-10-01T21:35:39.450Z,55.93
2022-10-01T21:38:30.118Z,56.48
2022-10-01T21:41:15.306Z,56.20
2022-10-01T21:43:46.890Z,56.38
2022-10-01T21:46:30.639Z,56.62
2022-10-01T21:49:07.453Z,56.14
2022-10-01T21:51:41.117Z,55.76
2022-10-01T21:54:17.403Z,56.25
2022-10-01T21:57:10.276Z,56.34
2022-10-01T22:00:17.742Z,56.60
2022-10-01T22:03:07.203Z,56.38
2022-10-01T22:05:39.614Z,56.58
2022-10-01T22:08:52.818Z,56.13
2022-10-01T22:11:25.505Z,56.38
2022-10-01T22:14:01.466Z,56.81
2022-10-01T22:16:52.905Z,56.47
2022-10-01T22:19:28.867Z,56.22
2022-10-01T22:22:03.562Z,56.72
2022-10-01T22:24:43.858Z,56.70
2022-10-01T22:27:24.801Z,56.25
2022-10-01T22:30:13.811Z,56.38
2022-10-01T22:32:44.518Z,56.13
2022-10-01T22:35:17.534Z,55.73
2022-10-01T22:37:49.275Z,56.00
2022-10-01T22:40:18.886Z,56.11
2022-10-01T22:42:50.164Z,56.10
2022-10-01T22:45:17.390Z,56.35
2022-10-01T22:47:53.374Z,56.15
2022-10-01T22:51:05.008Z,56.33
2022-10-01T22:53:54.198Z,56.14
2022-10-01T22:56:47.323Z,56.18
2022-10-01T22:59:43.646Z,56.17
2022-10-01T23:02:29.393Z,56.20
2022-10-01T23:05:37.916Z,56.04
2022-10-01T23:08:24.098Z,56.03
2022-10-01T23:11:15.166Z,56.11
2022-10-01T23:14:00.529Z,56.51
2022-10-01T23:16:36.847Z,56.44
2022-10-01T23:19:17.521Z,56.36
2022-10-01T23:21:56.617Z,56.19
2022-10-01T23:24:32.563Z,56.08
2022-10-01T23:27:17.978Z,56.39
2022-10-01T23:29:54.107Z,56.33
2022-10-01T23:32:23.805Z,56.31
2022-10-01T23:35:13.845Z,56.18
2022-10-01T23:37:43.614Z,56.31
2022-10-01T23:40:14.970Z,56.23
2022-10-01T23:43:00.595Z,56.49
2022-10-01T23:45:30.618Z,56.70
2022-10-01T23:47:57.490Z,56.45
2022-10-01T23:50:53.046Z,56.55
2022-10-01T23:53:22.870Z,56.85
2022-10-01T23:56:42.502Z,56.63
2022-10-01T23:59:28.358Z,56.68
